sensor_id;sensor_type;location;lat;lon;timestamp;P1;durP1;ratioP1;P2;durP2;ratioP2
57111;SDS011;42992;49.084;19.300;2023-02-05T00:00:43;4.90;;;1.88;;
57111;SDS011;42992;49.084;19.300;2023-02-05T00:03:09;6.63;;;1.98;;
57111;SDS011;42992;49.084;19.300;2023-02-05T00:05:34;5.97;;;2.50;;
57111;SDS011;42992;49.084;19.300;2023-02-05T00:07:59;7.20;;;2.30;;
57111;SDS011;42992;49.084;19.300;2023-02-05T00:10:24;4.78;;;1.80;;
57111;SDS011;42992;49.084;19.300;2023-02-05T00:12:50;3.97;;;1.70;;
57111;SDS011;42992;49.084;19.300;2023-02-05T00:15:16;6.00;;;2.58;;
57111;SDS011;42992;49.084;19.300;2023-02-05T00:17:44;5.15;;;1.83;;
57111;SDS011;42992;49.084;19.300;2023-02-05T00:20:10;4.03;;;1.80;;
57111;SDS011;42992;49.084;19.300;2023-02-05T00:22:40;4.45;;;2.03;;
57111;SDS011;42992;49.084;19.300;2023-02-05T00:25:08;4.97;;;1.95;;
57111;SDS011;42992;49.084;19.300;2023-02-05T00:27:34;5.95;;;2.50;;
57111;SDS011;42992;49.084;19.300;2023-02-05T00:30:00;4.97;;;2.33;;
57111;SDS011;42992;49.084;19.300;2023-02-05T00:32:25;5.22;;;1.90;;
57111;SDS011;42992;49.084;19.300;2023-02-05T00:34:51;5.50;;;2.22;;
57111;SDS011;42992;49.084;19.300;2023-02-05T00:37:19;5.65;;;2.05;;
57111;SDS011;42992;49.084;19.300;2023-02-05T00:39:45;5.45;;;2.13;;
57111;SDS011;42992;49.084;19.300;2023-02-05T00:42:15;8.02;;;2.42;;
57111;SDS011;42992;49.084;19.300;2023-02-05T00:44:40;6.45;;;2.03;;
57111;SDS011;42992;49.084;19.300;2023-02-05T00:47:06;5.55;;;2.20;;
57111;SDS011;42992;49.084;19.300;2023-02-05T00:49:31;6.72;;;2.15;;
57111;SDS011;42992;49.084;19.300;2023-02-05T00:54:31;6.72;;;2.28;;
57111;SDS011;42992;49.084;19.300;2023-02-05T00:56:57;5.28;;;2.08;;
57111;SDS011;42992;49.084;19.300;2023-02-05T00:59:22;6.95;;;2.38;;
57111;SDS011;42992;49.084;19.300;2023-02-05T01:01:48;6.25;;;2.22;;
57111;SDS011;42992;49.084;19.300;2023-02-05T01:04:14;5.05;;;2.33;;
57111;SDS011;42992;49.084;19.300;2023-02-05T01:06:40;9.55;;;2.00;;
57111;SDS011;42992;49.084;19.300;2023-02-05T01:09:05;6.88;;;2.40;;
57111;SDS011;42992;49.084;19.300;2023-02-05T01:11:30;6.05;;;2.75;;
57111;SDS011;42992;49.084;19.300;2023-02-05T01:13:56;5.90;;;2.58;;
57111;SDS011;42992;49.084;19.300;2023-02-05T01:16:21;8.23;;;3.40;;
57111;SDS011;42992;49.084;19.300;2023-02-05T01:18:47;6.80;;;2.42;;
57111;SDS011;42992;49.084;19.300;2023-02-05T01:21:12;6.63;;;2.28;;
57111;SDS011;42992;49.084;19.300;2023-02-05T01:23:37;5.47;;;2.50;;
57111;SDS011;42992;49.084;19.300;2023-02-05T01:26:02;7.20;;;2.55;;
57111;SDS011;42992;49.084;19.300;2023-02-05T01:28:28;6.32;;;3.00;;
57111;SDS011;42992;49.084;19.300;2023-02-05T01:30:53;6.70;;;3.00;;
57111;SDS011;42992;49.084;19.300;2023-02-05T01:33:18;8.75;;;2.75;;
57111;SDS011;42992;49.084;19.300;2023-02-05T01:35:44;8.07;;;2.95;;
57111;SDS011;42992;49.084;19.300;2023-02-05T01:38:10;6.60;;;2.53;;
57111;SDS011;42992;49.084;19.300;2023-02-05T01:40:36;6.43;;;2.85;;
57111;SDS011;42992;49.084;19.300;2023-02-05T01:43:02;6.65;;;2.60;;
57111;SDS011;42992;49.084;19.300;2023-02-05T01:45:38;7.25;;;3.03;;
57111;SDS011;42992;49.084;19.300;2023-02-05T01:48:06;5.40;;;2.45;;
57111;SDS011;42992;49.084;19.300;2023-02-05T01:50:33;5.35;;;2.28;;
57111;SDS011;42992;49.084;19.300;2023-02-05T01:53:01;6.25;;;2.63;;
57111;SDS011;42992;49.084;19.300;2023-02-05T01:55:27;9.38;;;2.65;;
57111;SDS011;42992;49.084;19.300;2023-02-05T01:57:55;8.32;;;2.63;;
57111;SDS011;42992;49.084;19.300;2023-02-05T02:00:21;7.80;;;2.50;;
57111;SDS011;42992;49.084;19.300;2023-02-05T02:02:46;6.00;;;2.22;;
57111;SDS011;42992;49.084;19.300;2023-02-05T02:05:13;4.82;;;2.05;;
57111;SDS011;42992;49.084;19.300;2023-02-05T02:07:39;6.30;;;2.40;;
57111;SDS011;42992;49.084;19.300;2023-02-05T02:10:05;5.10;;;2.10;;
57111;SDS011;42992;49.084;19.300;2023-02-05T02:12:32;5.78;;;2.25;;
57111;SDS011;42992;49.084;19.300;2023-02-05T02:14:59;5.15;;;2.53;;
57111;SDS011;42992;49.084;19.300;2023-02-05T02:17:26;5.15;;;2.40;;
57111;SDS011;42992;49.084;19.300;2023-02-05T02:19:59;5.78;;;2.38;;
57111;SDS011;42992;49.084;19.300;2023-02-05T02:27:37;4.60;;;1.80;;
57111;SDS011;42992;49.084;19.300;2023-02-05T02:30:18;5.47;;;1.95;;
57111;SDS011;42992;49.084;19.300;2023-02-05T02:32:49;4.38;;;2.08;;
57111;SDS011;42992;49.084;19.300;2023-02-05T02:35:17;4.90;;;1.83;;
57111;SDS011;42992;49.084;19.300;2023-02-05T02:37:47;4.20;;;1.58;;
57111;SDS011;42992;49.084;19.300;2023-02-05T02:40:21;3.63;;;1.40;;
57111;SDS011;42992;49.084;19.300;2023-02-05T02:42:50;6.03;;;1.70;;
57111;SDS011;42992;49.084;19.300;2023-02-05T02:45:18;3.60;;;1.50;;
57111;SDS011;42992;49.084;19.300;2023-02-05T02:47:48;4.78;;;2.25;;
57111;SDS011;42992;49.084;19.300;2023-02-05T02:50:17;5.57;;;1.77;;
57111;SDS011;42992;49.084;19.300;2023-02-05T02:52:45;4.18;;;1.80;;
57111;SDS011;42992;49.084;19.300;2023-02-05T02:55:12;3.70;;;1.40;;
57111;SDS011;42992;49.084;19.300;2023-02-05T02:57:38;3.38;;;1.38;;
57111;SDS011;42992;49.084;19.300;2023-02-05T03:00:05;3.72;;;1.55;;
57111;SDS011;42992;49.084;19.300;2023-02-05T03:02:34;3.95;;;1.50;;
57111;SDS011;42992;49.084;19.300;2023-02-05T03:05:02;5.28;;;1.95;;
57111;SDS011;42992;49.084;19.300;2023-02-05T03:07:33;3.25;;;1.58;;
57111;SDS011;42992;49.084;19.300;2023-02-05T03:10:13;3.78;;;1.50;;
57111;SDS011;42992;49.084;19.300;2023-02-05T03:12:42;4.10;;;1.50;;
57111;SDS011;42992;49.084;19.300;2023-02-05T03:15:08;3.90;;;1.60;;
57111;SDS011;42992;49.084;19.300;2023-02-05T03:17:34;5.93;;;1.80;;
57111;SDS011;42992;49.084;19.300;2023-02-05T03:20:07;4.90;;;2.13;;
57111;SDS011;42992;49.084;19.300;2023-02-05T03:22:33;4.45;;;1.83;;
57111;SDS011;42992;49.084;19.300;2023-02-05T03:25:00;3.92;;;1.60;;
57111;SDS011;42992;49.084;19.300;2023-02-05T03:27:26;3.75;;;1.80;;
57111;SDS011;42992;49.084;19.300;2023-02-05T03:29:51;5.72;;;2.83;;
57111;SDS011;42992;49.084;19.300;2023-02-05T03:32:27;5.43;;;2.40;;
57111;SDS011;42992;49.084;19.300;2023-02-05T03:37:26;4.63;;;2.05;;
57111;SDS011;42992;49.084;19.300;2023-02-05T03:45:23;4.97;;;2.03;;
57111;SDS011;42992;49.084;19.300;2023-02-05T03:50:48;4.60;;;1.80;;
57111;SDS011;42992;49.084;19.300;2023-02-05T03:53:22;5.80;;;1.92;;
57111;SDS011;42992;49.084;19.300;2023-02-05T03:55:49;5.85;;;2.17;;
57111;SDS011;42992;49.084;19.300;2023-02-05T04:00:43;4.35;;;1.83;;
57111;SDS011;42992;49.084;19.300;2023-02-05T04:03:08;7.82;;;2.25;;
57111;SDS011;42992;49.084;19.300;2023-02-05T04:05:34;5.82;;;1.70;;
57111;SDS011;42992;49.084;19.300;2023-02-05T04:07:59;4.97;;;2.13;;
57111;SDS011;42992;49.084;19.300;2023-02-05T04:10:26;4.93;;;1.85;;
57111;SDS011;42992;49.084;19.300;2023-02-05T04:12:51;3.95;;;1.45;;
57111;SDS011;42992;49.084;19.300;2023-02-05T04:15:16;5.07;;;2.15;;
57111;SDS011;42992;49.084;19.300;2023-02-05T04:17:42;6.03;;;2.08;;
57111;SDS011;42992;49.084;19.300;2023-02-05T04:20:07;3.75;;;1.73;;
57111;SDS011;42992;49.084;19.300;2023-02-05T04:22:33;3.83;;;1.52;;
57111;SDS011;42992;49.084;19.300;2023-02-05T04:24:59;5.03;;;1.75;;
57111;SDS011;42992;49.084;19.300;2023-02-05T04:27:27;4.18;;;1.50;;
57111;SDS011;42992;49.084;19.300;2023-02-05T04:29:53;3.88;;;1.35;;
57111;SDS011;42992;49.084;19.300;2023-02-05T04:32:18;3.30;;;1.40;;
57111;SDS011;42992;49.084;19.300;2023-02-05T04:34:45;4.63;;;1.65;;
57111;SDS011;42992;49.084;19.300;2023-02-05T04:37:10;4.07;;;1.52;;
57111;SDS011;42992;49.084;19.300;2023-02-05T04:39:36;4.03;;;1.70;;
57111;SDS011;42992;49.084;19.300;2023-02-05T04:42:02;5.03;;;1.58;;
57111;SDS011;42992;49.084;19.300;2023-02-05T04:44:27;4.20;;;1.70;;
57111;SDS011;42992;49.084;19.300;2023-02-05T04:46:53;4.45;;;1.40;;
57111;SDS011;42992;49.084;19.300;2023-02-05T04:49:19;4.32;;;1.58;;
57111;SDS011;42992;49.084;19.300;2023-02-05T04:51:44;4.75;;;2.05;;
57111;SDS011;42992;49.084;19.300;2023-02-05T04:54:14;4.70;;;1.70;;
57111;SDS011;42992;49.084;19.300;2023-02-05T04:59:32;3.65;;;1.77;;
57111;SDS011;42992;49.084;19.300;2023-02-05T05:01:58;4.05;;;1.55;;
57111;SDS011;42992;49.084;19.300;2023-02-05T05:04:23;4.05;;;1.65;;
57111;SDS011;42992;49.084;19.300;2023-02-05T05:06:54;4.55;;;1.70;;
57111;SDS011;42992;49.084;19.300;2023-02-05T05:09:27;4.93;;;1.92;;
57111;SDS011;42992;49.084;19.300;2023-02-05T05:11:55;4.75;;;2.00;;
57111;SDS011;42992;49.084;19.300;2023-02-05T05:14:21;4.18;;;1.60;;
57111;SDS011;42992;49.084;19.300;2023-02-05T05:16:49;4.93;;;2.13;;
57111;SDS011;42992;49.084;19.300;2023-02-05T05:19:16;5.28;;;1.70;;
57111;SDS011;42992;49.084;19.300;2023-02-05T05:21:44;3.60;;;1.70;;
57111;SDS011;42992;49.084;19.300;2023-02-05T05:24:09;4.75;;;2.10;;
57111;SDS011;42992;49.084;19.300;2023-02-05T05:26:35;6.25;;;2.28;;
57111;SDS011;42992;49.084;19.300;2023-02-05T05:29:02;7.00;;;2.60;;
57111;SDS011;42992;49.084;19.300;2023-02-05T05:31:27;6.25;;;2.13;;
57111;SDS011;42992;49.084;19.300;2023-02-05T05:33:55;14.00;;;4.55;;
57111;SDS011;42992;49.084;19.300;2023-02-05T05:36:21;8.63;;;3.28;;
57111;SDS011;42992;49.084;19.300;2023-02-05T05:38:46;6.93;;;2.63;;
57111;SDS011;42992;49.084;19.300;2023-02-05T05:41:16;6.10;;;2.30;;
57111;SDS011;42992;49.084;19.300;2023-02-05T05:44:00;4.97;;;1.85;;
57111;SDS011;42992;49.084;19.300;2023-02-05T05:46:25;4.18;;;1.83;;
57111;SDS011;42992;49.084;19.300;2023-02-05T05:48:51;6.25;;;2.63;;
57111;SDS011;42992;49.084;19.300;2023-02-05T05:51:17;5.00;;;1.70;;
57111;SDS011;42992;49.084;19.300;2023-02-05T05:53:44;4.00;;;1.75;;
57111;SDS011;42992;49.084;19.300;2023-02-05T05:56:10;5.05;;;2.00;;
57111;SDS011;42992;49.084;19.300;2023-02-05T05:58:38;3.88;;;1.50;;
57111;SDS011;42992;49.084;19.300;2023-02-05T06:01:07;5.43;;;1.90;;
57111;SDS011;42992;49.084;19.300;2023-02-05T06:03:42;3.25;;;1.40;;
57111;SDS011;42992;49.084;19.300;2023-02-05T06:06:12;4.55;;;1.45;;
57111;SDS011;42992;49.084;19.300;2023-02-05T06:08:43;5.07;;;1.50;;
57111;SDS011;42992;49.084;19.300;2023-02-05T06:11:09;5.20;;;1.80;;
57111;SDS011;42992;49.084;19.300;2023-02-05T06:13:36;5.13;;;2.28;;
57111;SDS011;42992;49.084;19.300;2023-02-05T06:16:02;3.78;;;1.50;;
57111;SDS011;42992;49.084;19.300;2023-02-05T06:18:33;4.63;;;1.63;;
57111;SDS011;42992;49.084;19.300;2023-02-05T06:21:09;5.43;;;2.00;;
57111;SDS011;42992;49.084;19.300;2023-02-05T06:23:34;5.15;;;1.60;;
57111;SDS011;42992;49.084;19.300;2023-02-05T06:26:00;3.97;;;1.60;;
57111;SDS011;42992;49.084;19.300;2023-02-05T06:28:25;5.22;;;1.90;;
57111;SDS011;42992;49.084;19.300;2023-02-05T06:30:51;4.32;;;2.03;;
57111;SDS011;42992;49.084;19.300;2023-02-05T06:33:21;5.95;;;2.22;;
57111;SDS011;42992;49.084;19.300;2023-02-05T06:35:47;5.95;;;2.42;;
57111;SDS011;42992;49.084;19.300;2023-02-05T06:38:15;6.43;;;2.20;;
57111;SDS011;42992;49.084;19.300;2023-02-05T06:40:45;8.10;;;2.78;;
57111;SDS011;42992;49.084;19.300;2023-02-05T06:43:11;3.85;;;1.60;;
57111;SDS011;42992;49.084;19.300;2023-02-05T06:45:36;2.85;;;1.35;;
57111;SDS011;42992;49.084;19.300;2023-02-05T06:48:02;4.47;;;1.83;;
57111;SDS011;42992;49.084;19.300;2023-02-05T06:50:27;5.88;;;2.30;;
57111;SDS011;42992;49.084;19.300;2023-02-05T06:52:53;4.57;;;2.08;;
57111;SDS011;42992;49.084;19.300;2023-02-05T06:55:18;4.68;;;1.73;;
57111;SDS011;42992;49.084;19.300;2023-02-05T06:57:44;4.45;;;1.50;;
57111;SDS011;42992;49.084;19.300;2023-02-05T07:00:09;5.97;;;2.70;;
57111;SDS011;42992;49.084;19.300;2023-02-05T07:02:36;8.90;;;3.40;;
57111;SDS011;42992;49.084;19.300;2023-02-05T07:05:02;5.68;;;2.45;;
57111;SDS011;42992;49.084;19.300;2023-02-05T07:07:27;5.80;;;2.28;;
57111;SDS011;42992;49.084;19.300;2023-02-05T07:09:53;6.25;;;1.90;;
57111;SDS011;42992;49.084;19.300;2023-02-05T07:15:25;4.70;;;2.10;;
57111;SDS011;42992;49.084;19.300;2023-02-05T07:17:50;7.38;;;2.92;;
57111;SDS011;42992;49.084;19.300;2023-02-05T07:20:17;5.97;;;2.70;;
57111;SDS011;42992;49.084;19.300;2023-02-05T07:22:43;7.35;;;2.95;;
57111;SDS011;42992;49.084;19.300;2023-02-05T07:25:11;6.28;;;2.53;;
57111;SDS011;42992;49.084;19.300;2023-02-05T07:27:36;4.65;;;1.83;;
57111;SDS011;42992;49.084;19.300;2023-02-05T07:30:02;9.65;;;3.70;;
57111;SDS011;42992;49.084;19.300;2023-02-05T07:32:28;4.95;;;2.00;;
57111;SDS011;42992;49.084;19.300;2023-02-05T07:34:54;6.00;;;2.80;;
57111;SDS011;42992;49.084;19.300;2023-02-05T07:37:25;6.03;;;2.42;;
57111;SDS011;42992;49.084;19.300;2023-02-05T07:39:51;9.25;;;3.60;;
57111;SDS011;42992;49.084;19.300;2023-02-05T07:42:18;5.80;;;2.53;;
57111;SDS011;42992;49.084;19.300;2023-02-05T07:44:43;7.13;;;2.63;;
57111;SDS011;42992;49.084;19.300;2023-02-05T07:47:09;6.65;;;2.15;;
57111;SDS011;42992;49.084;19.300;2023-02-05T07:49:34;4.95;;;2.42;;
57111;SDS011;42992;49.084;19.300;2023-02-05T07:52:00;10.23;;;2.13;;
57111;SDS011;42992;49.084;19.300;2023-02-05T07:54:26;5.10;;;1.83;;
57111;SDS011;42992;49.084;19.300;2023-02-05T07:56:52;3.90;;;1.80;;
57111;SDS011;42992;49.084;19.300;2023-02-05T07:59:17;6.32;;;3.17;;
57111;SDS011;42992;49.084;19.300;2023-02-05T08:01:43;5.65;;;2.05;;
57111;SDS011;42992;49.084;19.300;2023-02-05T08:04:08;5.00;;;2.50;;
57111;SDS011;42992;49.084;19.300;2023-02-05T08:06:34;9.88;;;3.30;;
57111;SDS011;42992;49.084;19.300;2023-02-05T08:08:59;6.78;;;2.63;;
57111;SDS011;42992;49.084;19.300;2023-02-05T08:11:26;5.28;;;2.30;;
57111;SDS011;42992;49.084;19.300;2023-02-05T08:13:52;6.22;;;2.30;;
57111;SDS011;42992;49.084;19.300;2023-02-05T08:16:18;7.03;;;2.80;;
57111;SDS011;42992;49.084;19.300;2023-02-05T08:18:47;7.18;;;2.40;;
57111;SDS011;42992;49.084;19.300;2023-02-05T08:21:13;5.88;;;2.75;;
57111;SDS011;42992;49.084;19.300;2023-02-05T08:23:39;6.25;;;3.40;;
57111;SDS011;42992;49.084;19.300;2023-02-05T08:26:06;6.63;;;2.75;;
57111;SDS011;42992;49.084;19.300;2023-02-05T08:28:32;4.47;;;2.05;;
57111;SDS011;42992;49.084;19.300;2023-02-05T08:30:57;5.82;;;2.00;;
57111;SDS011;42992;49.084;19.300;2023-02-05T08:33:25;5.72;;;2.28;;
57111;SDS011;42992;49.084;19.300;2023-02-05T08:35:51;5.78;;;2.33;;
57111;SDS011;42992;49.084;19.300;2023-02-05T08:38:17;4.32;;;2.20;;
57111;SDS011;42992;49.084;19.300;2023-02-05T08:40:44;4.95;;;2.30;;
57111;SDS011;42992;49.084;19.300;2023-02-05T08:43:09;5.55;;;2.10;;
57111;SDS011;42992;49.084;19.300;2023-02-05T08:45:35;4.93;;;2.00;;
57111;SDS011;42992;49.084;19.300;2023-02-05T08:48:01;6.40;;;3.00;;
57111;SDS011;42992;49.084;19.300;2023-02-05T08:50:26;5.18;;;2.28;;
57111;SDS011;42992;49.084;19.300;2023-02-05T08:52:52;7.47;;;2.60;;
57111;SDS011;42992;49.084;19.300;2023-02-05T08:55:19;5.18;;;2.45;;
57111;SDS011;42992;49.084;19.300;2023-02-05T08:57:45;9.60;;;3.70;;
57111;SDS011;42992;49.084;19.300;2023-02-05T09:00:11;16.50;;;10.32;;
57111;SDS011;42992;49.084;19.300;2023-02-05T09:02:37;10.93;;;3.92;;
57111;SDS011;42992;49.084;19.300;2023-02-05T09:05:16;10.38;;;3.58;;
57111;SDS011;42992;49.084;19.300;2023-02-05T09:07:47;7.85;;;2.90;;
57111;SDS011;42992;49.084;19.300;2023-02-05T09:10:12;4.40;;;2.28;;
57111;SDS011;42992;49.084;19.300;2023-02-05T09:12:39;7.05;;;3.20;;
57111;SDS011;42992;49.084;19.300;2023-02-05T09:15:05;5.38;;;2.55;;
57111;SDS011;42992;49.084;19.300;2023-02-05T09:17:31;5.43;;;1.90;;
57111;SDS011;42992;49.084;19.300;2023-02-05T09:19:56;6.40;;;2.78;;
57111;SDS011;42992;49.084;19.300;2023-02-05T09:22:22;6.97;;;2.90;;
57111;SDS011;42992;49.084;19.300;2023-02-05T09:24:48;5.68;;;2.63;;
57111;SDS011;42992;49.084;19.300;2023-02-05T09:27:28;6.32;;;3.00;;
57111;SDS011;42992;49.084;19.300;2023-02-05T09:29:54;6.53;;;3.05;;
57111;SDS011;42992;49.084;19.300;2023-02-05T09:32:20;5.57;;;2.10;;
57111;SDS011;42992;49.084;19.300;2023-02-05T09:34:45;6.75;;;3.28;;
57111;SDS011;42992;49.084;19.300;2023-02-05T09:37:20;16.48;;;6.57;;
57111;SDS011;42992;49.084;19.300;2023-02-05T09:39:46;20.27;;;8.35;;
57111;SDS011;42992;49.084;19.300;2023-02-05T09:42:31;13.98;;;5.40;;
57111;SDS011;42992;49.084;19.300;2023-02-05T09:50:29;10.40;;;5.13;;
57111;SDS011;42992;49.084;19.300;2023-02-05T09:53:01;10.05;;;5.68;;
57111;SDS011;42992;49.084;19.300;2023-02-05T09:55:30;8.35;;;4.05;;
57111;SDS011;42992;49.084;19.300;2023-02-05T09:58:02;9.35;;;4.05;;
57111;SDS011;42992;49.084;19.300;2023-02-05T10:00:31;10.93;;;5.43;;
57111;SDS011;42992;49.084;19.300;2023-02-05T10:05:23;11.48;;;5.45;;
57111;SDS011;42992;49.084;19.300;2023-02-05T10:07:53;10.75;;;4.97;;
57111;SDS011;42992;49.084;19.300;2023-02-05T10:15:48;7.47;;;3.42;;
57111;SDS011;42992;49.084;19.300;2023-02-05T10:18:21;9.38;;;4.45;;
57111;SDS011;42992;49.084;19.300;2023-02-05T10:23:15;7.60;;;3.35;;
57111;SDS011;42992;49.084;19.300;2023-02-05T11:29:42;6.60;;;3.08;;
57111;SDS011;42992;49.084;19.300;2023-02-05T11:36:18;8.32;;;4.05;;
57111;SDS011;42992;49.084;19.300;2023-02-05T15:03:18;12.57;;;6.28;;
57111;SDS011;42992;49.084;19.300;2023-02-05T15:57:45;14.07;;;7.10;;
57111;SDS011;42992;49.084;19.300;2023-02-05T16:00:31;11.45;;;5.80;;
57111;SDS011;42992;49.084;19.300;2023-02-05T16:02:59;14.13;;;6.30;;
57111;SDS011;42992;49.084;19.300;2023-02-05T16:05:30;14.23;;;7.15;;
57111;SDS011;42992;49.084;19.300;2023-02-05T16:08:13;17.92;;;7.88;;
57111;SDS011;42992;49.084;19.300;2023-02-05T16:10:49;18.17;;;9.73;;
57111;SDS011;42992;49.084;19.300;2023-02-05T16:13:45;18.10;;;9.40;;
57111;SDS011;42992;49.084;19.300;2023-02-05T16:19:53;15.20;;;7.93;;
57111;SDS011;42992;49.084;19.300;2023-02-05T16:31:06;17.40;;;8.50;;
57111;SDS011;42992;49.084;19.300;2023-02-05T16:36:36;18.65;;;8.90;;
57111;SDS011;42992;49.084;19.300;2023-02-05T17:19:27;30.95;;;16.10;;
57111;SDS011;42992;49.084;19.300;2023-02-05T17:30:35;39.75;;;19.25;;
57111;SDS011;42992;49.084;19.300;2023-02-05T17:33:06;41.97;;;18.55;;
57111;SDS011;42992;49.084;19.300;2023-02-05T17:35:57;34.15;;;15.85;;
57111;SDS011;42992;49.084;19.300;2023-02-05T17:38:46;22.25;;;10.38;;
57111;SDS011;42992;49.084;19.300;2023-02-05T17:44:20;13.45;;;5.57;;
